Aérodrome :
LOGIN :

S'inscrire | Disclaimer

   EN    FR    IT 

 










Légende :    VFR   VFR Marginal   IFR   IFR Intensif   IFR Très Intensif
Visi : 
Plafond : 
>= 8 km
>= 3000ft
5 à 8 km
1000 à 3000 ft
1500m à 5 km
500 à 1000 ft
800 à 1500m
200 à 500 ft
< 800m
< 200 ft
Symboles :   Orages  Brouillard  Fortes neiges  Fortes précipitations  Vent > 20 kt
SIGMETs :   Divers  Orages  Givrage  Turbulence  Onde Orograph.  Cendres Volcan.







- Altitude de l'aérodrome : 90 ft
- Code IATA : NTE
- Voir les cartes d'approche


LFRS - Nantes

DERNIER METAR :
  • 230000Z AUTO 20003KT 9999 FEW028 BKN040 OVC046 12/10 Q1025 NOSIG

METARs EXPIRÉS :
  • 222330Z AUTO 18003KT 9999 BKN038 OVC044 12/10 Q1025 NOSIG
  • 222300Z AUTO 17002KT 9999 BKN049 OVC120 11/10 Q1025 NOSIG
  • 222230Z AUTO 21001KT 9999 FEW038 BKN045 OVC120 12/10 Q1025 NOSIG
  • 222200Z AUTO 28003KT 250V310 9999 FEW022 OVC036 12/10 Q1026 NOSIG
  • 222130Z AUTO 24003KT 9999 FEW029 BKN037 OVC045 12/10 Q1026 NOSIG

TAF TAF LFRS
Valide du 23 à 00h jusqu'au 24 à 06h UTC


222300Z 2300/2406 21003KT 9999 BKN040
TEMPO 2312/2324 -RA BKN013
ATIS : +33 2 40 05 12 74
Pas de NOTAMs connus pour ce terrain.



MET'MAP, la Météo Aéronautique d'un coup d'oeil ! - Copyright ORBIFLY Décembre 2007 - Disclaimer

ORBIFLY MET'MAP TEAM :

Programmation & Développement : Alexandra Zaïnal
Conception & Développement : Baudouin d'Aumeries
Co-Programmation & Développement : Marc-Olivier Méhu
Soutien technique & logistique : Manuel Goepfert

Contact : metmap@orbifly.com




SOURCES & CREDITS :

   NOAA